createdAt,value
2018-07-27T00:02:10.420Z,7.65
2018-07-27T00:08:05.445Z,7.3
2018-07-27T00:14:00.487Z,7.76
2018-07-27T00:19:55.478Z,7.91
2018-07-27T00:25:50.448Z,7.68
2018-07-27T00:31:45.454Z,8.81
2018-07-27T00:37:40.500Z,7.93
2018-07-27T00:43:35.470Z,7.87
2018-07-27T00:49:30.504Z,8.21
2018-07-27T00:55:25.476Z,7.7
2018-07-27T01:01:20.486Z,8
2018-07-27T01:07:15.485Z,8.11
2018-07-27T01:13:10.530Z,7.82
2018-07-27T01:19:05.612Z,8.56
2018-07-27T01:25:00.487Z,8.43
2018-07-27T01:30:55.487Z,8.27
2018-07-27T01:36:50.526Z,8.88
2018-07-27T01:42:45.564Z,8.33
2018-07-27T01:48:40.505Z,7.6
2018-07-27T01:54:35.648Z,8.47
2018-07-27T02:00:30.522Z,8.38
2018-07-27T02:06:25.522Z,8.24
2018-07-27T02:12:20.531Z,8.16
2018-07-27T02:18:15.581Z,8.36
2018-07-27T02:24:10.530Z,8.56
2018-07-27T02:30:05.583Z,8.38
2018-07-27T02:36:00.589Z,8.52
2018-07-27T02:41:55.632Z,8.29
2018-07-27T02:47:50.555Z,8.49
2018-07-27T02:53:45.603Z,8.28
2018-07-27T02:59:40.561Z,8.62
2018-07-27T03:05:35.558Z,8.45
2018-07-27T03:11:30.593Z,8.53
2018-07-27T03:17:25.579Z,9.28
2018-07-27T03:23:20.668Z,9.4
2018-07-27T03:29:15.587Z,8.5
2018-07-27T03:35:10.569Z,9.22
2018-07-27T03:41:05.600Z,9.01
2018-07-27T03:47:00.626Z,9.18
2018-07-27T03:52:55.581Z,8.89
2018-07-27T03:58:50.602Z,9.38
2018-07-27T04:04:45.616Z,9.23
2018-07-27T04:10:40.607Z,9.99
2018-07-27T04:16:35.693Z,8.55
2018-07-27T04:22:30.685Z,8.77
2018-07-27T04:28:25.615Z,9.53
2018-07-27T04:34:20.639Z,9.33
2018-07-27T04:40:15.679Z,9.24
2018-07-27T04:46:10.629Z,9.26
2018-07-27T04:52:05.676Z,9.42
2018-07-27T04:58:00.623Z,9.83
2018-07-27T05:03:55.738Z,9.05
2018-07-27T05:09:50.638Z,8.79
2018-07-27T05:15:45.650Z,9.26
2018-07-27T05:21:40.652Z,9.89
2018-07-27T05:27:35.664Z,11.97
2018-07-27T05:33:30.667Z,12.5
2018-07-27T05:39:25.697Z,12.3
2018-07-27T05:45:20.680Z,12.99
2018-07-27T05:51:15.731Z,12.45
2018-07-27T05:57:10.739Z,11.55
2018-07-27T06:03:05.683Z,11.63
2018-07-27T06:09:00.710Z,11.06
2018-07-27T06:14:55.751Z,11.25
2018-07-27T06:20:50.731Z,12.12
2018-07-27T06:26:45.700Z,11.54
2018-07-27T06:32:40.729Z,11.35
2018-07-27T06:38:35.745Z,10.24
2018-07-27T06:44:30.731Z,9.93
2018-07-27T06:50:25.711Z,9.7
2018-07-27T06:56:20.706Z,9.22
2018-07-27T07:02:15.783Z,9.26
2018-07-27T07:08:10.727Z,10.54
2018-07-27T07:14:05.756Z,9.85
2018-07-27T07:20:00.736Z,10.33
2018-07-27T07:25:56.243Z,9.34
2018-07-27T07:31:50.739Z,9.14
2018-07-27T07:37:45.792Z,8.76
2018-07-27T07:43:40.815Z,8.9
2018-07-27T07:49:35.816Z,8.29
2018-07-27T07:55:30.851Z,11.87
2018-07-27T08:01:25.785Z,8.92
2018-07-27T08:07:20.774Z,9
2018-07-27T08:13:15.838Z,8.57
2018-07-27T08:19:10.817Z,7.73
2018-07-27T08:25:05.824Z,7.68
2018-07-27T08:31:00.883Z,6.87
2018-07-27T08:36:55.792Z,6.95
2018-07-27T08:42:50.862Z,7.58
2018-07-27T08:48:45.813Z,7.47
2018-07-27T08:54:40.874Z,8.4
2018-07-27T09:00:35.843Z,8.38
2018-07-27T09:06:30.831Z,9.13
2018-07-27T09:12:25.847Z,8.5
2018-07-27T09:18:20.928Z,8.39
2018-07-27T09:24:15.890Z,7.66
2018-07-27T09:30:10.881Z,7.24
2018-07-27T09:36:05.871Z,6.83
2018-07-27T09:42:00.885Z,6.55
2018-07-27T09:47:55.908Z,6.5
2018-07-27T09:53:50.982Z,5.45
2018-07-27T09:59:45.987Z,6.26
2018-07-27T10:05:40.957Z,4.18
2018-07-27T10:11:35.916Z,4.71
2018-07-27T10:17:30.894Z,4.41
2018-07-27T10:23:25.939Z,4.31
2018-07-27T10:29:20.987Z,5
2018-07-27T10:35:15.914Z,4.32
2018-07-27T10:41:10.900Z,3.81
2018-07-27T10:47:05.945Z,3.82
2018-07-27T10:53:00.972Z,3.58
2018-07-27T10:58:55.969Z,3.49
2018-07-27T11:04:50.963Z,3.13
2018-07-27T11:10:45.980Z,2.63
2018-07-27T11:16:40.945Z,2.96
2018-07-27T11:22:36.024Z,2.15
2018-07-27T11:28:30.977Z,2.64
2018-07-27T11:34:26.037Z,2.9
2018-07-27T11:40:21.010Z,1.96
2018-07-27T11:46:15.984Z,2.34
2018-07-27T11:52:10.989Z,2.2
2018-07-27T11:58:06.037Z,2.06
2018-07-27T12:04:01.013Z,1.87
2018-07-27T12:09:56.066Z,1.34
2018-07-27T12:15:51.029Z,1.38
2018-07-27T12:21:46.302Z,1.07
2018-07-27T12:27:41.013Z,1.07
2018-07-27T12:33:36.049Z,1.15
2018-07-27T12:39:31.075Z,1.35
2018-07-27T12:45:26.052Z,1.18
2018-07-27T12:51:21.091Z,1.28
2018-07-27T12:57:16.064Z,1.02
2018-07-27T13:03:11.087Z,1.57
2018-07-27T13:09:06.071Z,2.33
2018-07-27T13:15:01.102Z,2.16
2018-07-27T13:20:56.099Z,2.13
2018-07-27T13:26:51.119Z,1.97
2018-07-27T13:32:46.142Z,1.9
2018-07-27T13:38:41.145Z,1.89
2018-07-27T13:44:36.072Z,2.03
2018-07-27T13:50:31.170Z,2.21
2018-07-27T13:56:26.197Z,2.29
2018-07-27T14:02:21.107Z,2.41
2018-07-27T14:08:16.124Z,2.49
2018-07-27T14:14:11.154Z,2.22
2018-07-27T14:20:06.120Z,2.34
2018-07-27T14:26:01.208Z,2.35
2018-07-27T14:31:56.122Z,2.14
2018-07-27T14:37:51.150Z,2.48
2018-07-27T14:43:46.145Z,2.6
2018-07-27T14:49:41.276Z,3.13
2018-07-27T14:55:36.184Z,2.62
2018-07-27T15:01:31.194Z,2.93
2018-07-27T15:07:26.217Z,3.2
2018-07-27T15:13:21.185Z,3.42
2018-07-27T15:19:16.228Z,3.65
2018-07-27T15:25:11.224Z,3.68
2018-07-27T15:31:06.209Z,3.62
2018-07-27T15:37:01.232Z,4.09
2018-07-27T15:42:56.251Z,4.32
2018-07-27T15:48:51.198Z,4.64
2018-07-27T15:54:46.284Z,4.58
2018-07-27T16:00:41.236Z,4.75
2018-07-27T16:06:36.333Z,5.16
2018-07-27T16:12:31.235Z,5.19
2018-07-27T16:18:26.238Z,5.22
2018-07-27T16:24:21.259Z,5.24
2018-07-27T16:30:16.253Z,5.34
2018-07-27T16:36:11.322Z,5.27
2018-07-27T16:42:06.339Z,5.49
2018-07-27T16:48:01.249Z,4.77
2018-07-27T16:53:56.291Z,4.92
2018-07-27T16:59:51.326Z,5.36
2018-07-27T17:05:46.277Z,6.21
2018-07-27T17:11:41.262Z,5.88
2018-07-27T17:17:36.291Z,5.03
2018-07-27T17:23:31.281Z,5.34
2018-07-27T17:29:26.400Z,5.61
2018-07-27T17:35:21.373Z,5.56
2018-07-27T17:41:16.326Z,5.78
2018-07-27T17:47:11.339Z,6.34
2018-07-27T17:53:06.361Z,6.19
2018-07-27T17:59:01.375Z,5.98
2018-07-27T18:04:56.326Z,5.9
2018-07-27T18:10:51.371Z,6.1
2018-07-27T18:16:46.348Z,5.94
2018-07-27T18:22:41.375Z,5.82
2018-07-27T18:28:36.404Z,6.47
2018-07-27T18:34:31.399Z,6.52
2018-07-27T18:40:26.410Z,6.17
2018-07-27T18:46:21.422Z,5.96
2018-07-27T18:52:16.390Z,6.7
2018-07-27T18:58:11.405Z,6.9
2018-07-27T19:04:06.462Z,6.46
2018-07-27T19:10:01.413Z,6.92
2018-07-27T19:15:56.435Z,6.86
2018-07-27T19:21:51.403Z,7.14
2018-07-27T19:27:46.414Z,6.38
2018-07-27T19:33:41.397Z,6.67
2018-07-27T19:39:36.475Z,7.19
2018-07-27T19:45:31.418Z,6.68
2018-07-27T19:51:26.435Z,7.28
2018-07-27T19:57:21.453Z,7.03
2018-07-27T20:03:16.459Z,7.41
2018-07-27T20:09:11.430Z,8.04
2018-07-27T20:15:06.518Z,7.54
2018-07-27T20:21:01.451Z,8.21
2018-07-27T20:26:56.479Z,7.99
2018-07-27T20:32:51.453Z,7.94
2018-07-27T20:38:46.459Z,7.86
2018-07-27T20:44:41.557Z,8.16
2018-07-27T20:50:36.551Z,8.64
2018-07-27T20:56:31.496Z,7.89
2018-07-27T21:02:26.513Z,8.84
2018-07-27T21:08:21.518Z,8.66
2018-07-27T21:14:16.522Z,8.95
2018-07-27T21:20:11.543Z,8.79
2018-07-27T21:26:06.556Z,9.45
2018-07-27T21:32:01.529Z,8.89
2018-07-27T21:37:56.537Z,9.28
2018-07-27T21:43:51.588Z,9.29
2018-07-27T21:49:46.530Z,9.44
2018-07-27T21:55:41.561Z,9.94
2018-07-27T22:01:36.529Z,9.72
2018-07-27T22:07:31.530Z,9.38
2018-07-27T22:13:26.573Z,10.14
2018-07-27T22:19:21.543Z,9.55
2018-07-27T22:25:16.554Z,9.05
2018-07-27T22:31:11.546Z,9.71
2018-07-27T22:37:06.572Z,9.46
2018-07-27T22:43:01.649Z,10.17
2018-07-27T22:48:56.554Z,10.09
2018-07-27T22:54:51.625Z,10.45
2018-07-27T23:00:46.644Z,10.7
2018-07-27T23:06:41.617Z,11.01
2018-07-27T23:12:36.626Z,11.18
2018-07-27T23:18:31.644Z,11.22
2018-07-27T23:24:26.640Z,11.36
2018-07-27T23:30:21.633Z,11.21
2018-07-27T23:36:16.623Z,11.49
2018-07-27T23:42:11.653Z,11.66
2018-07-27T23:48:06.725Z,12.17
2018-07-27T23:54:01.647Z,11.73
2018-07-27T23:59:56.679Z,13.03
